Time;durP1;ratioP1;P1;durP2;ratioP2;P2;SDS_P1;SDS_P2;PMS_P1;PMS_P2;Temp;Humidity;BMP_temperature;BMP_pressure;BME280_temperature;BME280_humidity;BME280_pressure;Samples;Min_cycle;Max_cycle;Signal;HPM_P1;HPM_P2
2022/11/03 00:01:16;;;;;;;13.30;6.63;;;7.40;99.90;;;;;;5052223;28;20577;-65
2022/11/03 00:03:44;;;;;;;7.47;6.72;;;7.20;99.90;;;;;;5052046;28;20197;-65
2022/11/03 00:06:12;;;;;;;10.68;6.82;;;7.10;99.90;;;;;;5048854;28;20255;-65
2022/11/03 00:08:42;;;;;;;13.25;6.65;;;7.20;99.90;;;;;;5053376;28;20261;-66
2022/11/03 00:11:12;;;;;;;9.23;6.60;;;7.20;99.90;;;;;;5050789;28;20686;-66
2022/11/03 00:13:42;;;;;;;9.02;6.07;;;7.10;99.90;;;;;;5053180;28;20557;-66
2022/11/03 00:16:12;;;;;;;16.67;6.63;;;7.10;99.90;;;;;;5052232;28;20694;-66
2022/11/03 00:18:41;;;;;;;11.23;6.50;;;7.10;99.90;;;;;;5053051;28;20655;-66
2022/11/03 00:21:11;;;;;;;13.50;6.47;;;7.10;99.90;;;;;;5052486;28;20568;-66
2022/11/03 00:23:41;;;;;;;11.82;7.35;;;7.10;99.90;;;;;;5052471;28;20656;-66
2022/11/03 00:26:12;;;;;;;16.52;9.90;;;7.10;99.90;;;;;;5045701;28;20236;-65
2022/11/03 00:28:41;;;;;;;12.10;8.60;;;7.10;99.90;;;;;;5051843;28;20193;-65
2022/11/03 00:31:11;;;;;;;14.82;8.90;;;7.00;99.90;;;;;;5049842;28;20200;-65
2022/11/03 00:33:41;;;;;;;8.05;6.22;;;6.90;99.90;;;;;;5051202;28;20215;-65
2022/11/03 00:36:12;;;;;;;13.52;6.65;;;6.80;99.90;;;;;;5052526;28;20600;-65
2022/11/03 00:38:41;;;;;;;13.23;6.60;;;6.80;99.90;;;;;;5053112;28;20494;-65
2022/11/03 00:41:09;;;;;;;10.45;6.43;;;6.80;99.90;;;;;;5052900;28;20515;-65
2022/11/03 00:43:38;;;;;;;13.27;7.70;;;6.80;99.90;;;;;;5052899;28;20200;-65
2022/11/03 00:46:08;;;;;;;5.95;5.35;;;6.70;99.90;;;;;;5052254;28;20205;-65
2022/11/03 00:48:37;;;;;;;8.60;6.40;;;6.70;99.90;;;;;;5052830;28;20656;-65
2022/11/03 00:51:09;;;;;;;7.20;5.90;;;6.70;99.90;;;;;;5052460;28;20209;-65
2022/11/03 00:53:38;;;;;;;9.93;6.05;;;6.60;99.90;;;;;;5036899;28;20228;-65
2022/11/03 00:56:09;;;;;;;11.52;6.60;;;6.50;99.90;;;;;;5032567;28;20258;-65
2022/11/03 00:58:38;;;;;;;12.20;7.05;;;6.40;99.90;;;;;;5033025;28;20239;-65
2022/11/03 01:01:08;;;;;;;8.95;6.47;;;6.20;99.90;;;;;;5032067;28;20212;-65
2022/11/03 01:03:39;;;;;;;11.38;6.50;;;6.10;99.90;;;;;;5031519;28;20213;-65
2022/11/03 01:09:09;;;;;;;15.43;7.30;;;6.00;99.90;;;;;;4990659;28;20202;-65
2022/11/03 01:11:46;;;;;;;18.30;8.75;;;5.90;99.90;;;;;;4990344;28;20577;-65
2022/11/03 01:14:16;;;;;;;10.07;9.05;;;5.80;99.90;;;;;;5011568;28;20204;-65
2022/11/03 01:16:44;;;;;;;13.98;8.77;;;5.70;99.90;;;;;;5032800;28;20193;-65
2022/11/03 01:19:12;;;;;;;11.93;8.13;;;5.80;99.90;;;;;;5032547;28;20572;-65
2022/11/03 01:21:42;;;;;;;15.93;10.15;;;5.70;99.90;;;;;;5031471;28;20862;-66
2022/11/03 01:24:10;;;;;;;13.73;8.85;;;5.70;99.90;;;;;;5046819;28;20197;-65
2022/11/03 01:26:38;;;;;;;13.23;9.13;;;5.70;99.90;;;;;;5052373;28;20216;-65
2022/11/03 01:29:07;;;;;;;11.05;7.00;;;5.70;99.90;;;;;;5052009;28;20212;-65
2022/11/03 01:31:35;;;;;;;20.33;9.15;;;5.80;99.90;;;;;;5051492;28;20199;-65
2022/11/03 01:34:03;;;;;;;14.13;7.70;;;5.80;99.90;;;;;;5051377;28;20203;-65
2022/11/03 01:36:31;;;;;;;12.63;8.43;;;5.90;99.90;;;;;;5051681;28;20200;-65
2022/11/03 01:39:00;;;;;;;12.57;6.72;;;5.80;99.90;;;;;;5051884;28;20200;-65
2022/11/03 01:41:28;;;;;;;10.70;7.47;;;5.90;99.90;;;;;;5050758;28;20216;-65
2022/11/03 01:44:24;;;;;;;10.45;8.25;;;5.90;99.90;;;;;;5051571;28;20200;-65
2022/11/03 01:46:57;;;;;;;12.25;7.93;;;6.00;99.90;;;;;;5052176;28;20218;-65
2022/11/03 01:49:30;;;;;;;8.73;5.90;;;6.00;99.90;;;;;;5051493;28;20200;-65
2022/11/03 01:52:03;;;;;;;11.18;7.22;;;6.00;99.90;;;;;;5050572;28;20388;-65
2022/11/03 01:54:34;;;;;;;10.80;6.53;;;6.00;99.90;;;;;;5031866;28;20190;-65
2022/11/03 01:57:06;;;;;;;8.18;6.72;;;6.10;99.90;;;;;;5032317;28;20633;-65
2022/11/03 01:59:35;;;;;;;8.30;6.40;;;6.10;99.90;;;;;;5032099;28;20193;-65
2022/11/03 02:02:03;;;;;;;10.68;6.93;;;6.20;99.90;;;;;;5033626;28;20204;-64
2022/11/03 02:04:34;;;;;;;8.15;6.10;;;6.20;99.90;;;;;;5050675;28;20200;-64
2022/11/03 02:07:11;;;;;;;11.27;5.78;;;6.10;99.90;;;;;;5050810;28;20574;-64
2022/11/03 02:09:40;;;;;;;7.05;5.50;;;6.00;99.90;;;;;;5051157;28;20185;-64
2022/11/03 02:12:10;;;;;;;7.32;5.93;;;5.90;99.90;;;;;;5052131;28;20212;-64
2022/11/03 02:14:42;;;;;;;12.32;7.00;;;5.90;99.90;;;;;;5051129;28;20216;-64
2022/11/03 02:17:13;;;;;;;12.15;7.63;;;5.90;99.90;;;;;;5051469;28;20549;-64
2022/11/03 02:19:44;;;;;;;8.23;6.85;;;5.90;99.90;;;;;;5050810;28;20193;-64
2022/11/03 02:22:27;;;;;;;16.90;6.80;;;5.90;99.90;;;;;;5051130;28;20571;-64
2022/11/03 02:25:06;;;;;;;10.65;6.95;;;5.90;99.90;;;;;;5050488;28;20185;-64
2022/11/03 02:27:36;;;;;;;9.93;6.95;;;5.90;99.90;;;;;;5051032;28;20653;-64
2022/11/03 02:30:04;;;;;;;14.32;7.45;;;5.90;99.90;;;;;;5050865;28;20211;-64
2022/11/03 02:32:39;;;;;;;9.98;7.30;;;5.90;99.90;;;;;;5051088;28;20216;-64
2022/11/03 02:35:18;;;;;;;9.35;7.30;;;5.90;99.90;;;;;;5051010;28;20214;-64
2022/11/03 02:37:49;;;;;;;10.13;7.40;;;6.00;99.90;;;;;;5050782;28;20623;-64
2022/11/03 02:40:23;;;;;;;15.48;7.53;;;6.00;99.90;;;;;;5050786;28;20192;-64
2022/11/03 02:42:53;;;;;;;9.48;7.28;;;6.00;99.90;;;;;;5051090;28;20760;-63
2022/11/03 02:45:24;;;;;;;9.10;7.22;;;6.00;99.90;;;;;;5049799;28;20196;-64
2022/11/03 02:47:56;;;;;;;15.07;6.68;;;6.00;99.90;;;;;;5051165;28;20223;-65
2022/11/03 02:50:28;;;;;;;7.88;6.20;;;6.10;99.90;;;;;;5050723;28;20185;-63
2022/11/03 02:52:57;;;;;;;7.22;6.25;;;6.10;99.90;;;;;;5043140;28;20197;-63
2022/11/03 02:55:33;;;;;;;10.80;6.53;;;6.10;99.90;;;;;;5051157;28;20212;-64
2022/11/03 02:58:10;;;;;;;7.82;6.65;;;6.20;99.90;;;;;;5047945;28;20298;-63
2022/11/03 03:00:45;;;;;;;12.40;7.05;;;6.10;99.90;;;;;;5054601;28;20192;-63
2022/11/03 03:03:20;;;;;;;10.45;5.68;;;6.10;99.90;;;;;;5052947;28;20200;-63
2022/11/03 03:05:51;;;;;;;13.38;7.13;;;5.90;99.90;;;;;;5054144;28;20639;-63
2022/11/03 03:08:21;;;;;;;10.90;6.72;;;5.80;99.90;;;;;;5053999;28;20680;-63
2022/11/03 03:10:51;;;;;;;10.02;6.35;;;5.70;99.90;;;;;;5053876;28;20192;-63
2022/11/03 03:13:23;;;;;;;18.98;9.13;;;5.80;99.90;;;;;;5053896;28;20276;-63
2022/11/03 03:16:02;;;;;;;18.50;7.15;;;5.80;99.90;;;;;;5053841;28;20199;-63
2022/11/03 03:18:41;;;;;;;12.00;7.63;;;5.80;99.90;;;;;;5053871;28;20530;-63
2022/11/03 03:21:14;;;;;;;21.98;9.32;;;5.80;99.90;;;;;;5053984;28;20205;-64
2022/11/03 03:23:48;;;;;;;15.10;7.65;;;5.90;99.90;;;;;;5053843;28;20195;-63
2022/11/03 03:26:23;;;;;;;12.50;7.28;;;5.90;99.90;;;;;;5053892;28;20207;-63
2022/11/03 03:28:57;;;;;;;16.05;7.50;;;5.90;99.90;;;;;;5053504;28;20216;-63
2022/11/03 03:31:27;;;;;;;13.63;7.75;;;6.00;99.90;;;;;;5053715;28;20189;-64
2022/11/03 03:33:58;;;;;;;14.82;7.47;;;6.00;99.90;;;;;;5052365;28;20219;-63
2022/11/03 03:36:29;;;;;;;14.25;7.85;;;5.80;99.90;;;;;;5054095;28;20193;-64
2022/11/03 03:39:01;;;;;;;15.68;8.60;;;5.70;99.90;;;;;;5053835;28;20207;-63
2022/11/03 03:41:31;;;;;;;21.85;7.70;;;5.60;99.90;;;;;;5054213;28;20629;-63
2022/11/03 03:44:04;;;;;;;41.13;9.63;;;5.50;99.90;;;;;;5053452;28;20624;-63
2022/11/03 03:46:36;;;;;;;45.72;9.60;;;5.30;99.90;;;;;;5053935;28;20608;-63
2022/11/03 03:49:06;;;;;;;38.22;9.52;;;5.20;99.90;;;;;;5053464;28;20234;-63
2022/11/03 03:51:35;;;;;;;21.35;10.68;;;5.30;99.90;;;;;;5053394;28;20216;-65
2022/11/03 03:54:03;;;;;;;26.73;9.85;;;5.50;99.90;;;;;;5034132;28;20206;-63
2022/11/03 03:56:36;;;;;;;24.20;11.50;;;5.50;99.90;;;;;;5033716;28;20298;-63
2022/11/03 03:59:05;;;;;;;24.15;9.70;;;5.60;99.90;;;;;;5033810;28;20197;-63
2022/11/03 04:01:33;;;;;;;48.00;12.63;;;5.50;99.90;;;;;;5032873;28;20284;-63
2022/11/03 04:04:01;;;;;;;27.33;12.07;;;5.50;99.90;;;;;;5043118;28;20283;-63
2022/11/03 04:06:29;;;;;;;21.60;10.80;;;5.50;99.90;;;;;;5052360;28;20229;-63
2022/11/03 04:08:57;;;;;;;29.15;11.02;;;5.70;99.90;;;;;;5053540;28;20212;-64
2022/11/03 04:22:31;;;;;;;26.98;10.27;;;5.70;99.90;;;;;;5052992;28;20189;-63
2022/11/03 04:25:00;;;;;;;31.90;9.70;;;5.50;99.90;;;;;;5053205;28;20204;-63
2022/11/03 04:27:31;;;;;;;29.73;12.40;;;5.60;99.90;;;;;;5052671;28;20205;-63
2022/11/03 04:30:15;;;;;;;25.92;10.75;;;5.40;99.90;;;;;;5053114;28;20213;-64
2022/11/03 04:32:44;;;;;;;23.58;9.98;;;5.40;99.90;;;;;;5051806;28;20209;-63
2022/11/03 04:35:17;;;;;;;26.85;10.90;;;5.50;99.90;;;;;;5052996;28;20624;-63
2022/11/03 04:37:48;;;;;;;18.73;10.32;;;5.60;99.90;;;;;;5051601;28;20199;-64
2022/11/03 04:40:17;;;;;;;16.23;9.48;;;5.60;99.90;;;;;;5052747;28;20647;-63
2022/11/03 04:42:46;;;;;;;23.77;10.73;;;5.60;99.90;;;;;;5051694;28;20223;-63
2022/11/03 04:45:24;;;;;;;18.75;9.30;;;5.60;99.90;;;;;;5050255;28;20200;-63
2022/11/03 04:47:53;;;;;;;16.42;9.15;;;5.60;99.90;;;;;;5051977;28;20560;-63
2022/11/03 04:50:23;;;;;;;18.80;9.43;;;5.60;99.90;;;;;;5052582;28;20197;-63
2022/11/03 04:52:56;;;;;;;21.25;9.38;;;5.60;99.90;;;;;;5043352;28;20220;-63
2022/11/03 04:55:25;;;;;;;55.20;11.57;;;5.40;99.90;;;;;;5041373;28;20185;-63
2022/11/03 04:57:57;;;;;;;17.83;9.68;;;5.40;99.90;;;;;;5051717;28;20593;-63
2022/11/03 05:00:30;;;;;;;16.77;9.02;;;5.50;99.90;;;;;;5052370;28;20193;-63
2022/11/03 05:02:58;;;;;;;21.45;9.93;;;5.50;99.90;;;;;;5051742;28;20185;-63
2022/11/03 05:05:26;;;;;;;25.52;8.80;;;5.50;99.90;;;;;;5051429;28;20200;-63
2022/11/03 05:07:56;;;;;;;16.45;7.88;;;5.50;99.90;;;;;;5051884;28;20232;-64
2022/11/03 05:10:27;;;;;;;20.95;9.35;;;5.50;99.90;;;;;;5050771;28;20297;-64
2022/11/03 05:12:56;;;;;;;21.20;9.45;;;5.50;99.90;;;;;;5051802;28;20212;-63
2022/11/03 05:15:31;;;;;;;16.25;9.30;;;5.30;99.90;;;;;;5051136;28;20694;-63
2022/11/03 05:18:01;;;;;;;27.85;10.77;;;5.10;99.90;;;;;;5052360;28;20196;-64
2022/11/03 05:20:36;;;;;;;23.25;9.60;;;5.00;99.90;;;;;;5051044;28;20213;-63
2022/11/03 05:23:05;;;;;;;15.02;8.57;;;4.90;99.90;;;;;;5052109;28;20211;-63
2022/11/03 05:25:39;;;;;;;19.35;9.50;;;5.00;99.90;;;;;;5050429;28;20412;-64
2022/11/03 05:28:24;;;;;;;17.42;8.05;;;5.20;99.90;;;;;;5048487;28;20194;-63
2022/11/03 05:30:54;;;;;;;20.63;9.00;;;5.20;99.90;;;;;;5050992;28;20211;-63
2022/11/03 05:33:27;;;;;;;18.80;9.25;;;5.30;99.90;;;;;;5051294;28;20667;-63
2022/11/03 05:35:58;;;;;;;15.75;8.80;;;5.40;99.90;;;;;;5051331;28;20184;-63
2022/11/03 05:38:31;;;;;;;11.65;9.00;;;5.50;99.90;;;;;;5051580;28;20181;-64
2022/11/03 05:40:59;;;;;;;13.77;8.25;;;5.60;99.90;;;;;;5051372;28;20185;-64
2022/11/03 05:43:28;;;;;;;17.33;9.02;;;5.50;99.90;;;;;;5051305;28;20215;-63
2022/11/03 05:46:01;;;;;;;17.42;10.50;;;5.60;99.90;;;;;;5049350;28;20197;-63
2022/11/03 05:48:33;;;;;;;39.75;17.27;;;5.60;99.90;;;;;;5051058;28;20201;-63
2022/11/03 05:51:07;;;;;;;35.63;15.90;;;5.60;99.90;;;;;;5050804;28;20652;-63
2022/11/03 05:53:37;;;;;;;41.15;15.70;;;5.60;99.90;;;;;;5047995;28;20244;-63
2022/11/03 05:56:07;;;;;;;32.22;14.93;;;5.50;99.90;;;;;;5051230;28;20197;-63
2022/11/03 05:58:37;;;;;;;24.13;15.40;;;5.60;99.90;;;;;;5050978;28;20188;-63
2022/11/03 06:01:13;;;;;;;34.85;16.25;;;5.60;99.90;;;;;;5050460;28;20207;-63
2022/11/03 06:03:41;;;;;;;35.13;17.58;;;5.70;99.90;;;;;;5049982;28;20202;-63
2022/11/03 06:06:18;;;;;;;34.08;17.17;;;5.70;99.90;;;;;;5050606;28;20207;-63
2022/11/03 06:08:47;;;;;;;30.55;15.10;;;5.70;99.90;;;;;;5046798;28;20213;-64
2022/11/03 06:11:22;;;;;;;30.63;14.77;;;5.80;99.90;;;;;;5034114;28;20201;-63
2022/11/03 06:13:51;;;;;;;26.63;13.45;;;5.90;99.90;;;;;;5050426;28;20192;-63
2022/11/03 06:16:47;;;;;;;28.13;14.00;;;5.90;99.90;;;;;;5048561;28;20207;-63
2022/11/03 06:19:21;;;;;;;28.65;13.05;;;6.00;99.90;;;;;;5030824;28;20201;-63
2022/11/03 06:21:51;;;;;;;18.55;9.13;;;6.00;99.90;;;;;;5046820;28;20659;-64
2022/11/03 06:24:21;;;;;;;16.95;10.43;;;5.90;99.90;;;;;;5050450;28;20212;-63
2022/11/03 06:26:50;;;;;;;24.08;10.48;;;5.90;99.90;;;;;;5051273;28;20192;-64
2022/11/03 06:29:21;;;;;;;17.80;9.80;;;6.00;99.90;;;;;;5052561;28;20217;-64
2022/11/03 06:31:54;;;;;;;14.13;8.80;;;5.90;99.90;;;;;;5055458;28;20200;-64
2022/11/03 06:34:37;;;;;;;13.68;8.27;;;5.90;99.90;;;;;;5054520;28;20184;-64
2022/11/03 06:37:30;;;;;;;14.35;8.65;;;5.90;99.90;;;;;;5054803;28;20754;-64
2022/11/03 06:40:00;;;;;;;13.45;8.00;;;5.90;99.90;;;;;;5051310;28;20197;-64
2022/11/03 06:42:32;;;;;;;15.77;9.32;;;6.00;99.90;;;;;;5054863;28;20533;-64
2022/11/03 06:45:10;;;;;;;13.27;10.02;;;6.00;99.90;;;;;;5054200;28;20675;-65
2022/11/03 06:47:40;;;;;;;14.90;8.68;;;6.10;99.90;;;;;;5048007;28;20651;-65
2022/11/03 06:50:22;;;;;;;14.27;9.13;;;6.20;99.90;;;;;;5051132;28;20220;-64
2022/11/03 06:52:50;;;;;;;19.88;11.25;;;6.20;99.90;;;;;;5044788;28;21328;-66
2022/11/03 06:55:24;;;;;;;12.48;9.82;;;6.30;99.90;;;;;;5033607;28;20197;-64
2022/11/03 06:57:54;;;;;;;17.38;11.20;;;6.30;99.90;;;;;;5042061;28;20687;-64
2022/11/03 07:00:24;;;;;;;19.17;9.68;;;6.30;99.90;;;;;;5050813;28;20197;-64
2022/11/03 07:03:05;;;;;;;14.05;9.88;;;6.40;99.90;;;;;;5033266;28;20559;-64
2022/11/03 07:05:34;;;;;;;19.88;11.25;;;6.40;99.90;;;;;;5047556;28;20196;-64
2022/11/03 07:08:04;;;;;;;18.60;12.60;;;6.50;99.90;;;;;;5051532;28;20224;-65
2022/11/03 07:10:33;;;;;;;15.82;9.90;;;6.50;99.90;;;;;;5051970;28;20228;-65
2022/11/03 07:13:10;;;;;;;9.80;7.90;;;6.60;99.90;;;;;;5053136;28;20204;-65
2022/11/03 07:15:38;;;;;;;16.13;10.43;;;6.60;99.90;;;;;;5052836;28;20655;-64
2022/11/03 07:18:19;;;;;;;17.85;10.27;;;6.60;99.90;;;;;;5053171;28;20258;-65
2022/11/03 07:20:48;;;;;;;21.88;14.68;;;6.50;99.90;;;;;;5050226;28;20654;-66
2022/11/03 07:23:19;;;;;;;28.23;21.13;;;6.40;99.90;;;;;;5044810;28;20683;-65
2022/11/03 07:25:53;;;;;;;21.25;13.00;;;6.30;99.90;;;;;;5033546;28;20189;-66
2022/11/03 07:28:24;;;;;;;15.77;11.23;;;6.40;99.90;;;;;;5033125;28;20193;-66
2022/11/03 07:30:53;;;;;;;14.70;10.65;;;6.50;99.90;;;;;;5033630;28;20213;-66
2022/11/03 07:33:26;;;;;;;15.98;11.20;;;6.60;99.90;;;;;;5032723;28;20769;-67
2022/11/03 07:35:56;;;;;;;29.02;16.17;;;6.70;99.90;;;;;;5032582;28;20621;-64
2022/11/03 07:38:25;;;;;;;17.73;11.07;;;6.70;99.90;;;;;;5032843;28;20197;-66
2022/11/03 07:40:54;;;;;;;12.35;9.18;;;6.80;99.90;;;;;;5033497;28;20204;-64
2022/11/03 07:43:24;;;;;;;16.02;9.13;;;6.90;99.90;;;;;;5032794;28;20198;-65
2022/11/03 07:45:53;;;;;;;14.90;10.00;;;7.00;99.90;;;;;;5033011;28;20556;-65
2022/11/03 07:48:25;;;;;;;12.32;9.30;;;7.10;99.90;;;;;;5032031;28;20212;-64
2022/11/03 07:50:55;;;;;;;14.18;8.75;;;7.10;99.90;;;;;;5044395;28;20212;-65
2022/11/03 07:53:34;;;;;;;27.63;12.77;;;7.10;99.90;;;;;;5050718;28;20208;-64
2022/11/03 07:56:07;;;;;;;14.63;10.77;;;7.20;99.90;;;;;;5051442;28;20184;-65
2022/11/03 07:58:39;;;;;;;20.17;12.90;;;7.30;99.90;;;;;;5032139;28;20553;-64
2022/11/03 08:01:21;;;;;;;17.17;11.73;;;7.30;99.90;;;;;;5032335;28;20192;-64
2022/11/03 08:03:51;;;;;;;17.90;12.82;;;7.30;99.90;;;;;;5031897;28;20484;-64
2022/11/03 08:06:19;;;;;;;15.20;12.82;;;7.40;99.90;;;;;;5032306;28;20755;-65
2022/11/03 08:08:47;;;;;;;17.02;14.10;;;7.50;99.90;;;;;;5032039;28;20629;-66
2022/11/03 08:11:15;;;;;;;16.83;11.77;;;7.50;99.90;;;;;;5032457;28;20221;-65
2022/11/03 08:13:43;;;;;;;15.05;9.85;;;7.50;99.90;;;;;;5032631;28;20275;-65
2022/11/03 08:16:11;;;;;;;12.15;9.98;;;7.40;99.90;;;;;;5042019;28;20200;-64
2022/11/03 08:18:38;;;;;;;10.20;8.10;;;7.30;99.90;;;;;;5049847;28;20261;-65
2022/11/03 08:21:08;;;;;;;9.98;8.32;;;7.30;99.90;;;;;;5050203;28;20217;-65
2022/11/03 08:23:36;;;;;;;13.68;9.52;;;7.20;99.90;;;;;;5051619;28;20227;-67
2022/11/03 08:26:04;;;;;;;12.90;9.18;;;7.20;99.90;;;;;;5051915;28;20204;-65
2022/11/03 08:28:33;;;;;;;15.30;9.45;;;7.50;99.90;;;;;;5051972;28;20560;-66
2022/11/03 08:31:03;;;;;;;13.20;9.20;;;7.70;99.90;;;;;;5051874;28;20532;-66
2022/11/03 08:33:32;;;;;;;9.02;6.90;;;7.90;99.90;;;;;;5051912;28;20193;-66
2022/11/03 08:36:01;;;;;;;16.73;7.50;;;8.00;99.90;;;;;;5050619;28;20205;-65
2022/11/03 08:38:31;;;;;;;11.32;7.10;;;8.20;99.90;;;;;;5051425;28;20224;-66
2022/11/03 08:40:58;;;;;;;10.90;7.82;;;8.50;99.90;;;;;;5034099;28;20204;-66
2022/11/03 08:43:27;;;;;;;14.82;7.43;;;8.60;99.90;;;;;;5049362;28;20211;-65
2022/11/03 08:45:55;;;;;;;7.25;6.15;;;8.80;99.90;;;;;;5051103;28;20197;-66
2022/11/03 08:48:26;;;;;;;11.13;6.25;;;9.00;99.90;;;;;;5050899;28;20197;-65
2022/11/03 08:50:54;;;;;;;7.65;6.70;;;9.10;99.90;;;;;;5051495;28;20252;-65
2022/11/03 08:53:24;;;;;;;9.75;7.07;;;9.20;99.90;;;;;;5037205;28;20652;-65
2022/11/03 08:55:54;;;;;;;7.65;6.00;;;9.40;99.90;;;;;;5031455;28;20209;-65
2022/11/03 08:58:22;;;;;;;10.25;5.90;;;9.30;99.90;;;;;;5031156;28;20221;-65
2022/11/03 09:00:50;;;;;;;11.60;7.55;;;9.20;99.90;;;;;;5034086;28;20197;-65
2022/11/03 09:03:18;;;;;;;14.63;8.88;;;9.10;99.90;;;;;;5050765;28;20204;-66
2022/11/03 09:05:46;;;;;;;9.10;7.45;;;9.00;99.90;;;;;;5051807;28;20204;-66
2022/11/03 09:08:14;;;;;;;12.68;6.45;;;9.00;99.90;;;;;;5049941;28;20746;-65
2022/11/03 09:10:42;;;;;;;19.17;10.10;;;9.10;99.90;;;;;;5051272;28;20473;-66
2022/11/03 09:13:11;;;;;;;15.20;7.00;;;9.30;99.90;;;;;;5050379;28;20209;-66
2022/11/03 09:15:39;;;;;;;16.42;7.70;;;9.40;99.90;;;;;;5051219;28;20652;-66
2022/11/03 09:18:07;;;;;;;12.27;9.32;;;9.50;99.90;;;;;;5050172;28;20575;-65
2022/11/03 09:20:35;;;;;;;15.40;9.40;;;9.50;99.90;;;;;;5050910;28;20200;-66
2022/11/03 09:23:03;;;;;;;16.35;8.07;;;9.70;99.90;;;;;;5050529;28;20213;-66
2022/11/03 09:25:31;;;;;;;15.80;9.20;;;9.80;99.90;;;;;;5051082;28;20203;-65
2022/11/03 09:27:59;;;;;;;20.75;11.02;;;9.90;99.90;;;;;;5050334;28;20582;-64
2022/11/03 09:30:29;;;;;;;18.77;10.48;;;9.80;99.90;;;;;;5050683;28;20425;-65
2022/11/03 09:32:57;;;;;;;13.65;8.90;;;9.90;99.90;;;;;;5050690;28;20209;-65
2022/11/03 09:35:25;;;;;;;15.25;9.27;;;10.00;99.90;;;;;;5050166;28;20196;-66
2022/11/03 09:37:53;;;;;;;21.98;9.23;;;10.10;99.90;;;;;;5050256;28;20201;-64
2022/11/03 09:40:21;;;;;;;16.23;8.40;;;10.00;99.90;;;;;;5050274;28;20655;-63
2022/11/03 09:42:52;;;;;;;13.38;7.90;;;9.90;99.90;;;;;;5050429;28;20254;-63
2022/11/03 09:45:20;;;;;;;8.80;7.47;;;9.90;99.90;;;;;;5050244;28;20208;-64
2022/11/03 09:47:49;;;;;;;14.20;8.50;;;10.00;99.90;;;;;;5049114;28;20212;-63
2022/11/03 09:50:19;;;;;;;20.50;8.57;;;10.00;99.90;;;;;;5050377;28;20274;-66
2022/11/03 09:52:50;;;;;;;16.33;9.85;;;10.10;99.90;;;;;;5041660;28;20205;-65
2022/11/03 09:55:21;;;;;;;12.55;8.35;;;10.20;99.90;;;;;;5030698;28;20189;-65
2022/11/03 09:57:52;;;;;;;13.23;9.18;;;10.20;99.90;;;;;;5030107;28;20279;-64
2022/11/03 10:00:22;;;;;;;13.27;8.95;;;10.30;99.90;;;;;;5030586;28;20190;-65
2022/11/03 10:02:51;;;;;;;13.10;8.10;;;10.30;99.90;;;;;;5037928;28;20207;-64
2022/11/03 10:05:24;;;;;;;13.38;8.73;;;10.40;99.90;;;;;;5049822;28;20845;-64
2022/11/03 10:07:56;;;;;;;13.48;8.88;;;10.30;99.90;;;;;;5051761;28;20232;-64
2022/11/03 10:10:25;;;;;;;12.82;7.10;;;10.50;99.90;;;;;;5054586;28;20573;-64
2022/11/03 10:12:54;;;;;;;14.63;8.55;;;10.70;99.90;;;;;;5051963;28;20568;-64
2022/11/03 10:15:23;;;;;;;12.00;7.38;;;10.80;99.90;;;;;;5054668;28;20577;-65
2022/11/03 10:17:53;;;;;;;10.90;7.47;;;10.90;99.90;;;;;;5053147;28;20204;-66
2022/11/03 10:20:22;;;;;;;9.10;6.95;;;11.10;99.90;;;;;;5055397;28;20200;-65
2022/11/03 10:22:53;;;;;;;17.42;7.20;;;11.30;99.90;;;;;;5054107;28;20200;-65
2022/11/03 10:25:30;;;;;;;10.15;6.78;;;11.00;99.90;;;;;;5069629;28;20250;-66
2022/11/03 10:28:16;;;;;;;9.50;7.40;;;10.90;99.90;;;;;;5054023;28;20246;-65
2022/11/03 10:30:56;;;;;;;11.50;6.80;;;10.80;99.90;;;;;;5054495;28;20590;-64
2022/11/03 10:33:31;;;;;;;8.38;6.40;;;11.00;99.90;;;;;;5054758;28;20253;-64
2022/11/03 10:36:00;;;;;;;16.42;7.57;;;11.20;99.90;;;;;;5055079;28;20196;-65
2022/11/03 10:38:30;;;;;;;10.18;7.32;;;11.20;99.90;;;;;;5053934;28;20204;-64
2022/11/03 10:41:11;;;;;;;13.10;6.95;;;11.00;99.90;;;;;;5054239;28;20249;-65
2022/11/03 10:43:40;;;;;;;21.98;9.45;;;11.00;99.90;;;;;;5043313;28;20295;-67
2022/11/03 10:46:15;;;;;;;10.57;7.50;;;11.00;99.90;;;;;;5032857;28;20201;-66
2022/11/03 10:48:45;;;;;;;14.15;8.20;;;10.80;99.90;;;;;;5034665;28;20258;-67
2022/11/03 10:51:18;;;;;;;10.00;7.55;;;10.80;99.90;;;;;;5033653;28;20229;-66
2022/11/03 10:53:47;;;;;;;12.27;6.85;;;10.90;99.90;;;;;;5033142;28;20220;-66
2022/11/03 10:56:15;;;;;;;14.80;7.05;;;10.80;99.90;;;;;;5032006;28;20620;-66
2022/11/03 10:58:43;;;;;;;10.35;7.22;;;10.80;99.90;;;;;;5033720;28;20578;-66
2022/11/03 11:01:11;;;;;;;13.25;8.73;;;11.00;99.90;;;;;;5035085;28;20193;-66
2022/11/03 11:03:43;;;;;;;14.32;7.63;;;11.10;99.90;;;;;;5034401;28;20202;-66
2022/11/03 11:06:26;;;;;;;15.23;8.43;;;11.00;99.90;;;;;;5034897;28;20196;-66
2022/11/03 11:09:00;;;;;;;18.30;9.45;;;11.10;99.90;;;;;;5034514;28;20192;-66
2022/11/03 11:11:30;;;;;;;21.48;8.38;;;11.20;99.90;;;;;;5042833;28;20243;-66
2022/11/03 11:14:35;;;;;;;11.43;7.40;;;11.40;99.90;;;;;;5053392;28;20205;-66
2022/11/03 11:17:05;;;;;;;9.30;6.27;;;11.70;99.90;;;;;;5051449;28;21025;-66
2022/11/03 11:20:06;;;;;;;9.18;7.15;;;11.70;99.90;;;;;;5050679;28;20627;-66
2022/11/03 11:22:38;;;;;;;14.63;7.97;;;11.80;99.90;;;;;;5050978;28;20188;-66
2022/11/03 11:25:07;;;;;;;31.60;14.70;;;11.90;99.90;;;;;;5048175;28;20610;-66
2022/11/03 11:27:57;;;;;;;22.30;10.30;;;11.80;99.90;;;;;;5050262;28;20605;-65
2022/11/03 11:31:02;;;;;;;25.73;12.73;;;11.60;99.90;;;;;;5052402;28;20591;-66
2022/11/03 11:33:34;;;;;;;27.23;11.80;;;11.50;99.90;;;;;;5049386;28;20617;-66
2022/11/03 11:36:05;;;;;;;11.57;7.87;;;11.70;99.90;;;;;;5052788;28;20609;-66
2022/11/03 11:38:57;;;;;;;28.83;13.13;;;11.60;99.90;;;;;;5052572;28;21154;-65
2022/11/03 11:42:05;;;;;;;22.10;8.83;;;11.70;99.90;;;;;;5052394;28;20573;-66
2022/11/03 11:44:52;;;;;;;17.33;8.45;;;11.70;99.90;;;;;;5050157;28;21006;-66
2022/11/03 11:47:33;;;;;;;28.17;15.63;;;11.80;99.90;;;;;;5048820;28;20644;-66
2022/11/03 11:50:31;;;;;;;12.77;7.50;;;11.80;99.90;;;;;;5033554;28;20570;-66
2022/11/03 11:53:18;;;;;;;18.30;6.93;;;11.60;99.90;;;;;;5050038;28;21003;-66
2022/11/03 11:55:56;;;;;;;13.53;6.90;;;11.80;99.90;;;;;;5050261;28;20664;-66
2022/11/03 11:58:32;;;;;;;10.25;6.35;;;11.90;99.90;;;;;;5050861;28;21049;-66
2022/11/03 12:01:02;;;;;;;18.20;8.07;;;11.70;99.90;;;;;;5053334;28;20288;-66
2022/11/03 12:03:37;;;;;;;12.67;7.27;;;11.90;99.90;;;;;;5050861;28;21129;-66
2022/11/03 12:06:08;;;;;;;14.40;7.20;;;11.80;99.90;;;;;;5051013;28;20621;-65
2022/11/03 12:08:37;;;;;;;15.10;7.00;;;11.90;99.90;;;;;;5051692;28;20574;-66
2022/11/03 12:11:07;;;;;;;10.20;7.13;;;12.00;99.90;;;;;;5047389;28;20621;-66
2022/11/03 12:13:42;;;;;;;11.60;6.70;;;12.10;99.90;;;;;;5048138;28;20689;-66
2022/11/03 12:16:10;;;;;;;10.90;8.07;;;11.90;99.90;;;;;;5048073;28;20683;-66
2022/11/03 12:18:40;;;;;;;8.80;6.00;;;11.90;99.90;;;;;;5050377;28;20645;-66
2022/11/03 12:21:09;;;;;;;13.93;7.27;;;12.00;99.90;;;;;;5050248;28;20611;-66
2022/11/03 12:23:44;;;;;;;18.23;6.00;;;12.20;99.90;;;;;;5050179;28;20645;-66
2022/11/03 12:26:18;;;;;;;5.50;4.73;;;12.30;99.90;;;;;;5049325;28;21108;-66
2022/11/03 12:28:47;;;;;;;8.43;5.63;;;12.30;99.90;;;;;;5050519;28;20671;-66
2022/11/03 12:31:15;;;;;;;8.47;5.50;;;12.40;99.90;;;;;;5051494;28;20646;-66
2022/11/03 12:33:43;;;;;;;7.50;5.93;;;12.30;99.90;;;;;;5051887;28;20621;-66
2022/11/03 12:36:11;;;;;;;20.00;12.90;;;12.00;99.90;;;;;;5051199;28;20677;-66
2022/11/03 12:38:39;;;;;;;26.63;15.10;;;12.00;99.90;;;;;;5051295;28;20623;-66
2022/11/03 12:41:23;;;;;;;12.30;10.27;;;12.10;99.90;;;;;;5051675;28;20633;-66
2022/11/03 12:43:55;;;;;;;16.17;9.60;;;12.20;99.90;;;;;;5050749;28;20591;-66
2022/11/03 12:46:24;;;;;;;10.03;6.63;;;12.40;99.90;;;;;;5045805;28;20605;-66
2022/11/03 12:48:52;;;;;;;18.53;7.37;;;12.40;99.90;;;;;;5051784;28;21180;-66
2022/11/03 12:51:22;;;;;;;10.60;6.33;;;12.30;99.90;;;;;;5047796;28;20653;-66
2022/11/03 12:53:50;;;;;;;12.83;6.20;;;12.30;99.90;;;;;;5053154;28;20617;-66
2022/11/03 12:56:19;;;;;;;15.20;7.30;;;12.20;99.90;;;;;;5050113;28;20627;-66
2022/11/03 12:58:47;;;;;;;8.90;7.57;;;12.00;99.90;;;;;;5050675;28;20605;-66
2022/11/03 13:01:17;;;;;;;11.37;7.17;;;12.10;99.90;;;;;;5053363;28;20627;-66
2022/11/03 13:03:45;;;;;;;14.40;8.00;;;12.10;99.90;;;;;;5053479;28;20626;-66
2022/11/03 13:06:13;;;;;;;13.37;6.87;;;12.00;99.90;;;;;;5056945;28;20633;-66
2022/11/03 13:08:41;;;;;;;11.98;8.43;;;11.90;99.90;;;;;;5052330;28;21038;-66
2022/11/03 13:13:53;;;;;;;12.27;7.87;;;11.90;99.90;;;;;;5052560;28;20653;-66
2022/11/03 13:16:23;;;;;;;13.00;7.20;;;11.80;99.90;;;;;;5052238;28;20618;-66
2022/11/03 13:18:51;;;;;;;8.38;7.43;;;11.80;99.90;;;;;;5052748;28;20587;-66
2022/11/03 13:21:19;;;;;;;12.43;7.23;;;11.90;99.90;;;;;;5051930;28;20213;-66
2022/11/03 13:23:47;;;;;;;10.70;6.73;;;12.00;99.90;;;;;;5052026;28;20660;-66